EJU53RD LIMC-LEBL
Flight info
| Callsign | EJU53RD |
|---|---|
| Flight time | 1h 20m |
| Altitude | 32000 |
| Route | NEDED7Z NEDED DCT GEKBA DCT VAMTU DCT KOLON DCT GANGU DCT PADKO DCT DIVKO DCT NILDU DCT BISBA BISBA5N |
| Aircraft | A32N/M-V/N |
Departure
| Time | 2026-05-03 23:24 |
|---|---|
| Airport | Milan Malpensa International Airport (LIMC) |
Arrival
| Time | 2026-05-04 00:44 |
|---|---|
| Airport | Josep Tarradellas Barcelona-El Prat Airport (LEBL) |
| Time | Latitude | Longitude | Altitude | Speed | Heading |
|---|---|---|---|---|---|
| 2026-05-03 23:03 | 45.62812 | 8.71653 | 738 ft | 0 kts | 255° |
| 2026-05-03 23:14 | 45.62814 | 8.71663 | 738 ft | 2 kts | 255° |
| 2026-05-03 23:15 | 45.62819 | 8.71691 | 738 ft | 3 kts | 259° |
| 2026-05-03 23:15 | 45.62822 | 8.71720 | 736 ft | 3 kts | 264° |
| 2026-05-03 23:15 | 45.62823 | 8.71748 | 736 ft | 3 kts | 275° |
| 2026-05-03 23:15 | 45.62819 | 8.71775 | 737 ft | 3 kts | 306° |
| 2026-05-03 23:16 | 45.62810 | 8.71788 | 735 ft | 1 kts | 349° |
| 2026-05-03 23:18 | 45.62844 | 8.71780 | 737 ft | 13 kts | 350° |
| 2026-05-03 23:18 | 45.62950 | 8.71756 | 741 ft | 16 kts | 1° |
| 2026-05-03 23:18 | 45.62983 | 8.71865 | 741 ft | 14 kts | 82° |
| 2026-05-03 23:18 | 45.63009 | 8.72001 | 741 ft | 15 kts | 61° |
| 2026-05-03 23:19 | 45.63096 | 8.72021 | 743 ft | 14 kts | 349° |
| 2026-05-03 23:19 | 45.63191 | 8.71995 | 744 ft | 15 kts | 349° |
| 2026-05-03 23:19 | 45.63293 | 8.71969 | 746 ft | 15 kts | 351° |
| 2026-05-03 23:19 | 45.63360 | 8.71946 | 748 ft | 15 kts | 350° |
| 2026-05-03 23:20 | 45.63500 | 8.71909 | 749 ft | 16 kts | 351° |
| 2026-05-03 23:20 | 45.63573 | 8.71890 | 752 ft | 16 kts | 349° |
| 2026-05-03 23:20 | 45.63685 | 8.71860 | 751 ft | 17 kts | 349° |
| 2026-05-03 23:20 | 45.63800 | 8.71828 | 756 ft | 17 kts | 348° |
| 2026-05-03 23:21 | 45.63918 | 8.71793 | 758 ft | 17 kts | 348° |
| 2026-05-03 23:21 | 45.64039 | 8.71761 | 760 ft | 18 kts | 350° |
| 2026-05-03 23:21 | 45.64163 | 8.71725 | 763 ft | 18 kts | 348° |
| 2026-05-03 23:21 | 45.64291 | 8.71691 | 766 ft | 19 kts | 349° |
| 2026-05-03 23:22 | 45.64483 | 8.71790 | 768 ft | 18 kts | 81° |
| 2026-05-03 23:22 | 45.64415 | 8.71909 | 767 ft | 7 kts | 166° |
| 2026-05-03 23:22 | 45.64414 | 8.71910 | 767 ft | 0 kts | 165° |
| 2026-05-03 23:23 | 45.64408 | 8.71912 | 767 ft | 6 kts | 165° |
| 2026-05-03 23:23 | 45.64131 | 8.71986 | 763 ft | 75 kts | 169° |
| 2026-05-03 23:23 | 45.63420 | 8.72185 | 747 ft | 129 kts | 169° |
| 2026-05-03 23:23 | 45.62407 | 8.72460 | 778 ft | 162 kts | 169° |
| 2026-05-03 23:24 | 45.61295 | 8.72697 | 1208 ft | 165 kts | 177° |
| 2026-05-03 23:24 | 45.60118 | 8.72657 | 1611 ft | 173 kts | 184° |
| 2026-05-03 23:24 | 45.58889 | 8.72529 | 2015 ft | 181 kts | 188° |
| 2026-05-03 23:24 | 45.57629 | 8.72176 | 2444 ft | 187 kts | 193° |
| 2026-05-03 23:25 | 45.56338 | 8.71766 | 2962 ft | 191 kts | 193° |
| 2026-05-03 23:25 | 45.55045 | 8.71112 | 3313 ft | 211 kts | 215° |
| 2026-05-03 23:25 | 45.53950 | 8.69617 | 3902 ft | 223 kts | 230° |
| 2026-05-03 23:25 | 45.53278 | 8.67581 | 4622 ft | 236 kts | 262° |
| 2026-05-03 23:26 | 45.53467 | 8.65252 | 5515 ft | 242 kts | 293° |
| 2026-05-03 23:26 | 45.54482 | 8.63348 | 6443 ft | 246 kts | 322° |
| 2026-05-03 23:26 | 45.55907 | 8.61951 | 7312 ft | 251 kts | 324° |
| 2026-05-03 23:26 | 45.57227 | 8.60309 | 8196 ft | 254 kts | 310° |
| 2026-05-03 23:27 | 45.58272 | 8.58273 | 9112 ft | 255 kts | 298° |
| 2026-05-03 23:27 | 45.59068 | 8.56012 | 10052 ft | 256 kts | 290° |
| 2026-05-03 23:27 | 45.59721 | 8.53647 | 10904 ft | 257 kts | 287° |
| 2026-05-03 23:27 | 45.60314 | 8.51229 | 11758 ft | 259 kts | 285° |
| 2026-05-03 23:28 | 45.60896 | 8.48785 | 12606 ft | 261 kts | 285° |
| 2026-05-03 23:28 | 45.61484 | 8.46318 | 13456 ft | 264 kts | 285° |
| 2026-05-03 23:28 | 45.62084 | 8.43832 | 14251 ft | 266 kts | 285° |
| 2026-05-03 23:28 | 45.62554 | 8.41288 | 14972 ft | 263 kts | 269° |
| 2026-05-03 23:29 | 45.62250 | 8.38761 | 15663 ft | 259 kts | 243° |
| 2026-05-03 23:29 | 45.61152 | 8.36746 | 16340 ft | 260 kts | 217° |
| 2026-05-03 23:29 | 45.59477 | 8.35691 | 17004 ft | 267 kts | 190° |
| 2026-05-03 23:29 | 45.57592 | 8.35843 | 17508 ft | 284 kts | 168° |
| 2026-05-03 23:30 | 45.55614 | 8.36642 | 17690 ft | 306 kts | 169° |
| 2026-05-03 23:30 | 45.53455 | 8.37126 | 17888 ft | 323 kts | 179° |
| 2026-05-03 23:30 | 45.51144 | 8.37073 | 18075 ft | 341 kts | 187° |
| 2026-05-03 23:30 | 45.48730 | 8.36624 | 18284 ft | 359 kts | 192° |
| 2026-05-03 23:31 | 45.46251 | 8.35962 | 18746 ft | 366 kts | 193° |
| 2026-05-03 23:31 | 45.43748 | 8.35226 | 19366 ft | 369 kts | 193° |
| 2026-05-03 23:31 | 45.41227 | 8.34477 | 19989 ft | 372 kts | 193° |
| 2026-05-03 23:31 | 45.38676 | 8.33727 | 20587 ft | 376 kts | 193° |
| 2026-05-03 23:32 | 45.36103 | 8.32980 | 21186 ft | 379 kts | 193° |
| 2026-05-03 23:32 | 45.33505 | 8.32231 | 21779 ft | 383 kts | 193° |
| 2026-05-03 23:32 | 45.30875 | 8.31477 | 22371 ft | 387 kts | 193° |
| 2026-05-03 23:32 | 45.28226 | 8.30719 | 22941 ft | 390 kts | 193° |
| 2026-05-03 23:33 | 45.25551 | 8.29954 | 23519 ft | 394 kts | 193° |
| 2026-05-03 23:33 | 45.22890 | 8.29193 | 24021 ft | 397 kts | 193° |
| 2026-05-03 23:33 | 45.20139 | 8.28408 | 24545 ft | 399 kts | 193° |
| 2026-05-03 23:33 | 45.17410 | 8.27631 | 25027 ft | 402 kts | 194° |
| 2026-05-03 23:34 | 45.14659 | 8.26847 | 25503 ft | 404 kts | 194° |
| 2026-05-03 23:34 | 45.11926 | 8.26069 | 25961 ft | 407 kts | 194° |
| 2026-05-03 23:34 | 45.09136 | 8.25276 | 26427 ft | 410 kts | 194° |
| 2026-05-03 23:34 | 45.06333 | 8.24479 | 26865 ft | 412 kts | 193° |
| 2026-05-03 23:35 | 45.03507 | 8.23677 | 27305 ft | 415 kts | 194° |
| 2026-05-03 23:35 | 45.00671 | 8.22873 | 27739 ft | 417 kts | 194° |
| 2026-05-03 23:35 | 44.97810 | 8.22063 | 28151 ft | 420 kts | 194° |
| 2026-05-03 23:35 | 44.94938 | 8.21251 | 28552 ft | 422 kts | 194° |
| 2026-05-03 23:36 | 44.92049 | 8.20435 | 28946 ft | 425 kts | 194° |
| 2026-05-03 23:36 | 44.89145 | 8.19615 | 29320 ft | 427 kts | 193° |
| 2026-05-03 23:36 | 44.86229 | 8.18792 | 29698 ft | 429 kts | 193° |
| 2026-05-03 23:36 | 44.83295 | 8.17966 | 29979 ft | 431 kts | 194° |
| 2026-05-03 23:37 | 44.80347 | 8.17136 | 30091 ft | 432 kts | 194° |
| 2026-05-03 23:37 | 44.77401 | 8.16309 | 30107 ft | 432 kts | 193° |
| 2026-05-03 23:37 | 44.71542 | 8.14494 | 30108 ft | 430 kts | 199° |
| 2026-05-03 23:38 | 44.66077 | 8.11236 | 30108 ft | 425 kts | 211° |
| 2026-05-03 23:38 | 44.61029 | 8.06894 | 30110 ft | 426 kts | 213° |
| 2026-05-03 23:39 | 44.55983 | 8.02549 | 30107 ft | 425 kts | 213° |
| 2026-05-03 23:39 | 44.50934 | 7.98228 | 30105 ft | 425 kts | 213° |
| 2026-05-03 23:40 | 44.45883 | 7.93912 | 30107 ft | 426 kts | 212° |
| 2026-05-03 23:40 | 44.40824 | 7.89602 | 30110 ft | 425 kts | 212° |
| 2026-05-03 23:41 | 44.35760 | 7.85296 | 30108 ft | 426 kts | 212° |
| 2026-05-03 23:41 | 44.30736 | 7.81033 | 30112 ft | 425 kts | 212° |
| 2026-05-03 23:42 | 44.25834 | 7.76434 | 30116 ft | 425 kts | 220° |
| 2026-05-03 23:42 | 44.21410 | 7.70978 | 30102 ft | 424 kts | 222° |
| 2026-05-03 23:43 | 44.16988 | 7.65523 | 30117 ft | 425 kts | 222° |
| 2026-05-03 23:43 | 44.12804 | 7.59759 | 30121 ft | 423 kts | 229° |
| 2026-05-03 23:44 | 44.08946 | 7.53545 | 30116 ft | 425 kts | 229° |
| 2026-05-03 23:44 | 44.05070 | 7.47343 | 30116 ft | 424 kts | 229° |
| 2026-05-03 23:45 | 44.01200 | 7.41172 | 30121 ft | 424 kts | 229° |
| 2026-05-03 23:45 | 43.97319 | 7.34995 | 30118 ft | 427 kts | 229° |
| 2026-05-03 23:46 | 43.93410 | 7.28789 | 30121 ft | 426 kts | 229° |
| 2026-05-03 23:46 | 43.89503 | 7.22600 | 30123 ft | 427 kts | 229° |
| 2026-05-03 23:47 | 43.85596 | 7.16422 | 30123 ft | 427 kts | 229° |
| 2026-05-03 23:47 | 43.81682 | 7.10247 | 30125 ft | 427 kts | 228° |
| 2026-05-03 23:48 | 43.77757 | 7.04068 | 30124 ft | 428 kts | 229° |
| 2026-05-03 23:48 | 43.73880 | 6.97822 | 30124 ft | 427 kts | 233° |
| 2026-05-03 23:49 | 43.70846 | 6.90758 | 30122 ft | 429 kts | 245° |
| 2026-05-03 23:49 | 43.68597 | 6.83109 | 30129 ft | 430 kts | 247° |
| 2026-05-03 23:50 | 43.66714 | 6.76698 | 30116 ft | 430 kts | 246° |
| 2026-05-03 23:50 | 43.64085 | 6.67809 | 30111 ft | 430 kts | 246° |
| 2026-05-03 23:51 | 43.61816 | 6.60167 | 30109 ft | 430 kts | 246° |
| 2026-05-03 23:51 | 43.59543 | 6.52531 | 30105 ft | 430 kts | 246° |
| 2026-05-03 23:52 | 43.57266 | 6.44904 | 30113 ft | 431 kts | 246° |
| 2026-05-03 23:52 | 43.54974 | 6.37248 | 30102 ft | 431 kts | 246° |
| 2026-05-03 23:53 | 43.52679 | 6.29608 | 30103 ft | 432 kts | 246° |
| 2026-05-03 23:53 | 43.50380 | 6.21975 | 30099 ft | 432 kts | 246° |
| 2026-05-03 23:54 | 43.48075 | 6.14347 | 30101 ft | 431 kts | 246° |
| 2026-05-03 23:54 | 43.45766 | 6.06728 | 30101 ft | 430 kts | 246° |
| 2026-05-03 23:55 | 43.43458 | 5.99137 | 30093 ft | 430 kts | 246° |
| 2026-05-03 23:55 | 43.41143 | 5.91540 | 30087 ft | 430 kts | 246° |
| 2026-05-03 23:56 | 43.38822 | 5.83951 | 30085 ft | 430 kts | 246° |
| 2026-05-03 23:56 | 43.36517 | 5.76430 | 30075 ft | 431 kts | 246° |
| 2026-05-03 23:57 | 43.34188 | 5.68855 | 30077 ft | 429 kts | 245° |
| 2026-05-03 23:57 | 43.31867 | 5.61328 | 30073 ft | 429 kts | 245° |
| 2026-05-03 23:58 | 43.29537 | 5.53799 | 30066 ft | 429 kts | 245° |
| 2026-05-03 23:58 | 43.27198 | 5.46259 | 30071 ft | 430 kts | 245° |
| 2026-05-03 23:59 | 43.24854 | 5.38723 | 30070 ft | 429 kts | 245° |
| 2026-05-03 23:59 | 43.22508 | 5.31199 | 30072 ft | 427 kts | 245° |
| 2026-05-04 00:00 | 43.20181 | 5.23757 | 30071 ft | 425 kts | 244° |
| 2026-05-04 00:00 | 43.17842 | 5.16312 | 30068 ft | 425 kts | 244° |
| 2026-05-04 00:01 | 43.15880 | 5.10078 | 30067 ft | 425 kts | 244° |
| 2026-05-04 00:01 | 43.13552 | 5.02695 | 30063 ft | 425 kts | 244° |
| 2026-05-04 00:02 | 43.11199 | 4.95260 | 30076 ft | 427 kts | 244° |
| 2026-05-04 00:02 | 43.08859 | 4.87876 | 30062 ft | 421 kts | 244° |
| 2026-05-04 00:03 | 43.06386 | 4.80610 | 30062 ft | 420 kts | 237° |
| 2026-05-04 00:03 | 43.02824 | 4.74339 | 30064 ft | 417 kts | 223° |
| 2026-05-04 00:04 | 42.98490 | 4.69072 | 30063 ft | 417 kts | 221° |
| 2026-05-04 00:04 | 42.94138 | 4.63815 | 30063 ft | 417 kts | 221° |
| 2026-05-04 00:05 | 42.89785 | 4.58565 | 30053 ft | 418 kts | 221° |
| 2026-05-04 00:05 | 42.85449 | 4.53344 | 30048 ft | 413 kts | 220° |
| 2026-05-04 00:06 | 42.81127 | 4.48157 | 30050 ft | 414 kts | 220° |
| 2026-05-04 00:06 | 42.76801 | 4.42973 | 30044 ft | 414 kts | 220° |
| 2026-05-04 00:07 | 42.72477 | 4.37801 | 30038 ft | 414 kts | 220° |
| 2026-05-04 00:07 | 42.68147 | 4.32632 | 30040 ft | 414 kts | 220° |
| 2026-05-04 00:08 | 42.63817 | 4.27474 | 30038 ft | 414 kts | 220° |
| 2026-05-04 00:08 | 42.59483 | 4.22320 | 30030 ft | 414 kts | 220° |
| 2026-05-04 00:09 | 42.55149 | 4.17176 | 30031 ft | 414 kts | 220° |
| 2026-05-04 00:09 | 42.50800 | 4.12026 | 30027 ft | 417 kts | 220° |
| 2026-05-04 00:10 | 42.46441 | 4.06871 | 30027 ft | 416 kts | 220° |
| 2026-05-04 00:10 | 42.42078 | 4.01723 | 30018 ft | 416 kts | 220° |
| 2026-05-04 00:11 | 42.37744 | 3.96618 | 30012 ft | 416 kts | 220° |
| 2026-05-04 00:11 | 42.33374 | 3.91481 | 29999 ft | 417 kts | 220° |
| 2026-05-04 00:12 | 42.28975 | 3.86320 | 30008 ft | 418 kts | 220° |
| 2026-05-04 00:12 | 42.24582 | 3.81174 | 30010 ft | 418 kts | 220° |
| 2026-05-04 00:13 | 42.20197 | 3.76055 | 29832 ft | 414 kts | 221° |
| 2026-05-04 00:13 | 42.18023 | 3.73518 | 29310 ft | 412 kts | 221° |
| 2026-05-04 00:13 | 42.15867 | 3.71005 | 28697 ft | 408 kts | 221° |
| 2026-05-04 00:14 | 42.13731 | 3.68515 | 28047 ft | 404 kts | 221° |
| 2026-05-04 00:14 | 42.11614 | 3.66048 | 27435 ft | 400 kts | 222° |
| 2026-05-04 00:14 | 42.09690 | 3.63395 | 27208 ft | 394 kts | 230° |
| 2026-05-04 00:14 | 42.08069 | 3.60377 | 27078 ft | 401 kts | 238° |
| 2026-05-04 00:15 | 42.06783 | 3.57043 | 26982 ft | 401 kts | 245° |
| 2026-05-04 00:15 | 42.05676 | 3.53649 | 26900 ft | 392 kts | 244° |
| 2026-05-04 00:15 | 42.04584 | 3.50333 | 26627 ft | 384 kts | 244° |
| 2026-05-04 00:15 | 42.03504 | 3.47074 | 26079 ft | 381 kts | 244° |
| 2026-05-04 00:16 | 42.02422 | 3.43818 | 25437 ft | 380 kts | 244° |
| 2026-05-04 00:16 | 42.01350 | 3.40597 | 24951 ft | 375 kts | 244° |
| 2026-05-04 00:16 | 42.00289 | 3.37412 | 24418 ft | 372 kts | 244° |
| 2026-05-04 00:16 | 41.99236 | 3.34256 | 23888 ft | 369 kts | 244° |
| 2026-05-04 00:17 | 41.98190 | 3.31123 | 23320 ft | 366 kts | 244° |
| 2026-05-04 00:17 | 41.97151 | 3.28015 | 22728 ft | 362 kts | 244° |
| 2026-05-04 00:17 | 41.96123 | 3.24942 | 22143 ft | 359 kts | 244° |
| 2026-05-04 00:17 | 41.95127 | 3.21884 | 21574 ft | 356 kts | 247° |
| 2026-05-04 00:18 | 41.94383 | 3.18768 | 21014 ft | 355 kts | 254° |
| 2026-05-04 00:18 | 41.93833 | 3.15555 | 20463 ft | 352 kts | 255° |
| 2026-05-04 00:18 | 41.93286 | 3.12364 | 19911 ft | 349 kts | 255° |
| 2026-05-04 00:18 | 41.92738 | 3.09208 | 19397 ft | 346 kts | 255° |
| 2026-05-04 00:19 | 41.92184 | 3.06036 | 18886 ft | 343 kts | 255° |
| 2026-05-04 00:19 | 41.91649 | 3.02981 | 18424 ft | 339 kts | 255° |
| 2026-05-04 00:19 | 41.91112 | 2.99910 | 17881 ft | 336 kts | 255° |
| 2026-05-04 00:19 | 41.90571 | 2.96829 | 17323 ft | 333 kts | 255° |
| 2026-05-04 00:20 | 41.90047 | 2.93850 | 16786 ft | 331 kts | 255° |
| 2026-05-04 00:20 | 41.89519 | 2.90851 | 16266 ft | 328 kts | 255° |
| 2026-05-04 00:20 | 41.88995 | 2.87884 | 15761 ft | 326 kts | 255° |
| 2026-05-04 00:20 | 41.88475 | 2.84939 | 15259 ft | 323 kts | 255° |
| 2026-05-04 00:21 | 41.87958 | 2.82015 | 14770 ft | 321 kts | 255° |
| 2026-05-04 00:21 | 41.87444 | 2.79115 | 14300 ft | 318 kts | 255° |
| 2026-05-04 00:21 | 41.86933 | 2.76235 | 13803 ft | 316 kts | 255° |
| 2026-05-04 00:21 | 41.86425 | 2.73373 | 13231 ft | 315 kts | 255° |
| 2026-05-04 00:22 | 41.85916 | 2.70512 | 12654 ft | 314 kts | 255° |
| 2026-05-04 00:22 | 41.85408 | 2.67664 | 12098 ft | 314 kts | 255° |
| 2026-05-04 00:22 | 41.84901 | 2.64826 | 11585 ft | 312 kts | 255° |
| 2026-05-04 00:22 | 41.84397 | 2.62010 | 11087 ft | 310 kts | 256° |
| 2026-05-04 00:23 | 41.83895 | 2.59205 | 10709 ft | 304 kts | 256° |
| 2026-05-04 00:23 | 41.83407 | 2.56475 | 10579 ft | 290 kts | 256° |
| 2026-05-04 00:23 | 41.82946 | 2.53899 | 10446 ft | 278 kts | 255° |
| 2026-05-04 00:23 | 41.82493 | 2.51387 | 10065 ft | 277 kts | 256° |
| 2026-05-04 00:24 | 41.82040 | 2.48880 | 9626 ft | 277 kts | 256° |
| 2026-05-04 00:24 | 41.81588 | 2.46373 | 9199 ft | 276 kts | 256° |
| 2026-05-04 00:24 | 41.81141 | 2.43896 | 8811 ft | 272 kts | 256° |
| 2026-05-04 00:24 | 41.80696 | 2.41426 | 8370 ft | 273 kts | 255° |
| 2026-05-04 00:25 | 41.80252 | 2.38965 | 7991 ft | 271 kts | 255° |
| 2026-05-04 00:25 | 41.79806 | 2.36516 | 7610 ft | 271 kts | 255° |
| 2026-05-04 00:25 | 41.79363 | 2.34077 | 7260 ft | 268 kts | 255° |
| 2026-05-04 00:25 | 41.78920 | 2.31646 | 6877 ft | 268 kts | 255° |
| 2026-05-04 00:26 | 41.78480 | 2.29230 | 6537 ft | 266 kts | 255° |
| 2026-05-04 00:26 | 41.78047 | 2.26860 | 6199 ft | 263 kts | 255° |
| 2026-05-04 00:26 | 41.77605 | 2.24432 | 6062 ft | 268 kts | 255° |
| 2026-05-04 00:26 | 41.77042 | 2.22106 | 6022 ft | 265 kts | 240° |
| 2026-05-04 00:27 | 41.75816 | 2.20264 | 6009 ft | 263 kts | 214° |
| 2026-05-04 00:27 | 41.74138 | 2.19315 | 6020 ft | 268 kts | 197° |
| 2026-05-04 00:27 | 41.72325 | 2.18643 | 6019 ft | 267 kts | 196° |
| 2026-05-04 00:27 | 41.70533 | 2.17976 | 6023 ft | 267 kts | 197° |
| 2026-05-04 00:28 | 41.68765 | 2.17308 | 6019 ft | 267 kts | 197° |
| 2026-05-04 00:28 | 41.66950 | 2.16635 | 6019 ft | 268 kts | 197° |
| 2026-05-04 00:28 | 41.65160 | 2.15967 | 6019 ft | 267 kts | 197° |
| 2026-05-04 00:28 | 41.63367 | 2.15293 | 6022 ft | 267 kts | 197° |
| 2026-05-04 00:29 | 41.61579 | 2.14618 | 6024 ft | 268 kts | 197° |
| 2026-05-04 00:29 | 41.59784 | 2.13939 | 6019 ft | 267 kts | 197° |
| 2026-05-04 00:29 | 41.57996 | 2.13262 | 6009 ft | 268 kts | 197° |
| 2026-05-04 00:29 | 41.56215 | 2.12587 | 5866 ft | 265 kts | 197° |
| 2026-05-04 00:30 | 41.54443 | 2.11915 | 5537 ft | 264 kts | 197° |
| 2026-05-04 00:30 | 41.52676 | 2.11266 | 5187 ft | 262 kts | 193° |
| 2026-05-04 00:30 | 41.50870 | 2.10956 | 5056 ft | 265 kts | 183° |
| 2026-05-04 00:30 | 41.49021 | 2.10951 | 5020 ft | 265 kts | 181° |
| 2026-05-04 00:31 | 41.47181 | 2.10943 | 5019 ft | 265 kts | 182° |
| 2026-05-04 00:31 | 41.45345 | 2.10926 | 5016 ft | 264 kts | 182° |
| 2026-05-04 00:31 | 41.43502 | 2.10897 | 5024 ft | 265 kts | 182° |
| 2026-05-04 00:31 | 41.41669 | 2.10875 | 4938 ft | 263 kts | 182° |
| 2026-05-04 00:32 | 41.39844 | 2.10863 | 4653 ft | 262 kts | 181° |
| 2026-05-04 00:32 | 41.38025 | 2.10849 | 4267 ft | 261 kts | 181° |
| 2026-05-04 00:32 | 41.36228 | 2.10835 | 4069 ft | 260 kts | 181° |
| 2026-05-04 00:32 | 41.34421 | 2.10819 | 4024 ft | 262 kts | 181° |
| 2026-05-04 00:33 | 41.32584 | 2.10803 | 4022 ft | 261 kts | 181° |
| 2026-05-04 00:33 | 41.29040 | 2.11692 | 4021 ft | 263 kts | 158° |
| 2026-05-04 00:33 | 41.27369 | 2.12659 | 3943 ft | 260 kts | 158° |
| 2026-05-04 00:34 | 41.25708 | 2.13604 | 3647 ft | 260 kts | 158° |
| 2026-05-04 00:34 | 41.24052 | 2.14538 | 3265 ft | 260 kts | 158° |
| 2026-05-04 00:34 | 41.22398 | 2.15465 | 3038 ft | 257 kts | 158° |
| 2026-05-04 00:34 | 41.20733 | 2.16398 | 3001 ft | 260 kts | 158° |
| 2026-05-04 00:35 | 41.19073 | 2.17330 | 2999 ft | 259 kts | 158° |
| 2026-05-04 00:35 | 41.17408 | 2.18243 | 2996 ft | 259 kts | 161° |
| 2026-05-04 00:35 | 41.15668 | 2.18822 | 3000 ft | 258 kts | 172° |
| 2026-05-04 00:35 | 41.13891 | 2.19185 | 2998 ft | 258 kts | 172° |
| 2026-05-04 00:36 | 41.12123 | 2.19558 | 2969 ft | 255 kts | 172° |
| 2026-05-04 00:36 | 41.10415 | 2.19923 | 2858 ft | 241 kts | 174° |
| 2026-05-04 00:36 | 41.08818 | 2.19697 | 2731 ft | 227 kts | 204° |
| 2026-05-04 00:36 | 41.07597 | 2.18447 | 2420 ft | 223 kts | 235° |
| 2026-05-04 00:37 | 41.07091 | 2.16522 | 2063 ft | 232 kts | 269° |
| 2026-05-04 00:37 | 41.07138 | 2.14335 | 2383 ft | 238 kts | 271° |
| 2026-05-04 00:37 | 41.07177 | 2.12201 | 2631 ft | 228 kts | 270° |
| 2026-05-04 00:37 | 41.07198 | 2.10086 | 2879 ft | 231 kts | 270° |
| 2026-05-04 00:38 | 41.07426 | 2.08012 | 2976 ft | 227 kts | 288° |
| 2026-05-04 00:38 | 41.08163 | 2.06153 | 2999 ft | 230 kts | 301° |
| 2026-05-04 00:38 | 41.08999 | 2.04437 | 2995 ft | 210 kts | 301° |
| 2026-05-04 00:38 | 41.09748 | 2.02883 | 2994 ft | 191 kts | 300° |
| 2026-05-04 00:39 | 41.10600 | 2.01492 | 3004 ft | 193 kts | 324° |
| 2026-05-04 00:39 | 41.11799 | 2.00995 | 2995 ft | 175 kts | 2° |
| 2026-05-04 00:39 | 41.12910 | 2.01264 | 2987 ft | 152 kts | 15° |
| 2026-05-04 00:39 | 41.13863 | 2.01675 | 3006 ft | 143 kts | 19° |
| 2026-05-04 00:40 | 41.14808 | 2.02109 | 2982 ft | 142 kts | 18° |
| 2026-05-04 00:40 | 41.15752 | 2.02538 | 2800 ft | 146 kts | 18° |
| 2026-05-04 00:40 | 41.16703 | 2.02971 | 2579 ft | 142 kts | 18° |
| 2026-05-04 00:40 | 41.17622 | 2.03390 | 2375 ft | 137 kts | 18° |
| 2026-05-04 00:41 | 41.18539 | 2.03808 | 2175 ft | 139 kts | 19° |
| 2026-05-04 00:41 | 41.19449 | 2.04223 | 1999 ft | 138 kts | 19° |
| 2026-05-04 00:41 | 41.20351 | 2.04634 | 1810 ft | 137 kts | 19° |
| 2026-05-04 00:41 | 41.21244 | 2.05041 | 1635 ft | 135 kts | 19° |
| 2026-05-04 00:42 | 41.21830 | 2.05309 | 1502 ft | 135 kts | 19° |
| 2026-05-04 00:42 | 41.22713 | 2.05712 | 1323 ft | 134 kts | 19° |
| 2026-05-04 00:42 | 41.23589 | 2.06112 | 1145 ft | 133 kts | 19° |
| 2026-05-04 00:42 | 41.24461 | 2.06510 | 964 ft | 132 kts | 20° |
| 2026-05-04 00:43 | 41.25322 | 2.06903 | 791 ft | 130 kts | 19° |
| 2026-05-04 00:43 | 41.26174 | 2.07292 | 618 ft | 129 kts | 18° |
| 2026-05-04 00:43 | 41.27025 | 2.07681 | 442 ft | 129 kts | 18° |
| 2026-05-04 00:43 | 41.27865 | 2.08069 | 252 ft | 127 kts | 18° |
| 2026-05-04 00:44 | 41.28703 | 2.08459 | 80 ft | 127 kts | 17° |
| 2026-05-04 00:44 | 41.29507 | 2.08819 | 19 ft | 104 kts | 18° |
| 2026-05-04 00:44 | 41.30021 | 2.09048 | 15 ft | 63 kts | 19° |
| 2026-05-04 00:44 | 41.30409 | 2.09223 | 17 ft | 41 kts | 19° |
| 2026-05-04 00:45 | 41.30656 | 2.09338 | 21 ft | 33 kts | 19° |
| 2026-05-04 00:45 | 41.30853 | 2.09426 | 19 ft | 28 kts | 18° |
| 2026-05-04 00:45 | 41.30929 | 2.09384 | 19 ft | 14 kts | 255° |
| 2026-05-04 00:45 | 41.30922 | 2.09357 | 19 ft | 0 kts | 245° |
| 2026-05-04 00:47 | 41.30909 | 2.09320 | 18 ft | 16 kts | 245° |
| 2026-05-04 00:48 | 41.30821 | 2.09152 | 18 ft | 22 kts | 197° |
| 2026-05-04 00:48 | 41.30696 | 2.09094 | 18 ft | 20 kts | 199° |
| 2026-05-04 00:48 | 41.30618 | 2.09020 | 18 ft | 9 kts | 282° |
| 2026-05-04 00:48 | 41.30676 | 2.09000 | 18 ft | 10 kts | 18° |
| 2026-05-04 00:49 | 41.30718 | 2.08985 | 18 ft | 5 kts | 262° |
| 2026-05-04 00:49 | 41.30704 | 2.08958 | 18 ft | 1 kts | 243° |
| 2026-05-04 00:49 | 41.30703 | 2.08956 | 18 ft | 0 kts | 243° |